Weather at Örebro Airport

Public forecast

Using degrees Celsius for public forecast. Weather courtesy of forecast.io.

Current aviation weather report (METAR) for Örebro Airport

2022/12/03 15:50 (retrieved 15 minutes ago)

ESOE 031550Z AUTO 03011KT 9999 OVC028/// 01/M01 Q1033

Closest aviation forecast (TAF) to Örebro Airport

Closest forecast is Stockholm Skavsta Airport, 63.6 nm (117.7 km) ESE.

2022/12/03 15:00 (retrieved 1 hour ago)

TAF ESKN 031430Z 0315/0415 04007KT 9999 BKN025